createdAt,value
2023-11-05T00:02:36.215Z,7.22
2023-11-05T00:05:24.920Z,7.28
2023-11-05T00:08:28.865Z,7.34
2023-11-05T00:11:47.179Z,7.38
2023-11-05T00:14:55.533Z,7.42
2023-11-05T00:18:01.204Z,7.49
2023-11-05T00:20:52.704Z,7.47
2023-11-05T00:23:34.805Z,7.61
2023-11-05T00:26:34.219Z,7.63
2023-11-05T00:29:16.689Z,7.65
2023-11-05T00:35:27.999Z,7.55
2023-11-05T00:41:07.887Z,7.61
2023-11-05T00:44:03.174Z,7.65
2023-11-05T00:46:56.138Z,7.66
2023-11-05T00:49:41.092Z,7.66
2023-11-05T00:52:28.941Z,7.66
2023-11-05T00:55:39.497Z,7.67
2023-11-05T00:58:49.468Z,7.64
2023-11-05T01:05:04.924Z,7.57
2023-11-05T01:08:03.524Z,7.61
2023-11-05T01:10:41.026Z,7.56
2023-11-05T01:13:21.379Z,7.53
2023-11-05T01:16:37.309Z,7.54
2023-11-05T01:19:19.456Z,7.40
2023-11-05T01:22:03.850Z,7.53
2023-11-05T01:25:09.305Z,7.54
2023-11-05T01:28:04.689Z,7.56
2023-11-05T01:31:07.637Z,7.57
2023-11-05T01:34:05.744Z,7.57
2023-11-05T01:36:51.674Z,7.61
2023-11-05T01:43:23.997Z,7.67
2023-11-05T01:46:31.895Z,7.70
2023-11-05T01:49:42.638Z,7.71
2023-11-05T01:52:38.312Z,7.76
2023-11-05T01:55:19.670Z,7.79
2023-11-05T01:57:58.493Z,7.83
2023-11-05T02:01:07.830Z,7.88
2023-11-05T02:04:38.900Z,7.89
2023-11-05T02:07:24.429Z,7.92
2023-11-05T02:10:11.179Z,7.98
2023-11-05T02:13:10.531Z,8.02
2023-11-05T02:16:42.002Z,8.06
2023-11-05T02:19:32.096Z,8.08
2023-11-05T02:22:33.127Z,8.09
2023-11-05T02:26:10.030Z,8.10
2023-11-05T02:32:32.703Z,8.09
2023-11-05T02:35:49.765Z,8.13
2023-11-05T02:39:00.467Z,8.08
2023-11-05T02:41:47.758Z,8.20
2023-11-05T02:44:25.876Z,8.23
2023-11-05T02:47:16.797Z,8.24
2023-11-05T02:50:23.045Z,8.23
2023-11-05T02:53:07.104Z,8.24
2023-11-05T02:56:07.528Z,8.25
2023-11-05T02:59:24.125Z,8.13
2023-11-05T03:02:17.202Z,8.10
2023-11-05T03:05:22.252Z,8.14
2023-11-05T03:08:39.843Z,8.16
2023-11-05T03:11:19.802Z,8.25
2023-11-05T03:14:29.673Z,8.27
2023-11-05T03:17:14.989Z,8.29
2023-11-05T03:20:07.178Z,8.32
2023-11-05T03:22:59.187Z,8.35
2023-11-05T03:28:58.921Z,8.37
2023-11-05T03:31:35.527Z,8.39
2023-11-05T03:34:27.355Z,8.42
2023-11-05T03:40:33.886Z,8.45
2023-11-05T03:43:26.802Z,8.49
2023-11-05T03:46:14.423Z,8.53
2023-11-05T03:48:56.272Z,8.55
2023-11-05T03:51:28.497Z,8.57
2023-11-05T03:54:28.729Z,8.62
2023-11-05T03:57:19.135Z,8.63
2023-11-05T04:00:15.819Z,8.53
2023-11-05T04:03:51.004Z,8.45
2023-11-05T04:06:42.647Z,8.50
2023-11-05T04:09:29.016Z,8.55
2023-11-05T04:12:22.921Z,8.57
2023-11-05T04:15:32.565Z,8.59
2023-11-05T04:18:23.724Z,8.65
2023-11-05T04:21:05.771Z,8.67
2023-11-05T04:26:52.820Z,8.71
2023-11-05T04:33:16.561Z,8.69
2023-11-05T04:35:55.149Z,8.70
2023-11-05T04:38:40.858Z,8.72
2023-11-05T04:41:52.081Z,8.75
2023-11-05T04:44:45.050Z,8.75
2023-11-05T04:47:38.349Z,8.76
2023-11-05T04:50:26.530Z,8.77
2023-11-05T04:53:15.645Z,8.79
2023-11-05T04:56:20.860Z,8.78
2023-11-05T04:59:40.744Z,8.77
2023-11-05T05:02:40.826Z,8.76
2023-11-05T05:05:17.135Z,8.77
2023-11-05T05:08:13.546Z,8.81
2023-11-05T05:11:13.552Z,8.83
2023-11-05T05:17:13.514Z,8.87
2023-11-05T05:19:52.779Z,8.92
2023-11-05T05:22:34.733Z,8.96
2023-11-05T05:25:28.085Z,8.95
2023-11-05T05:28:24.698Z,8.98
2023-11-05T05:31:21.191Z,9.01
2023-11-05T05:34:01.689Z,9.01
2023-11-05T05:36:51.662Z,9.03
2023-11-05T05:39:40.635Z,9.04
2023-11-05T05:42:16.797Z,9.02
2023-11-05T05:44:54.584Z,9.01
2023-11-05T05:47:33.220Z,8.97
2023-11-05T05:50:23.893Z,8.95
2023-11-05T05:53:10.474Z,8.94
2023-11-05T05:56:13.513Z,8.95
2023-11-05T05:58:58.458Z,8.93
2023-11-05T06:01:49.894Z,8.91
2023-11-05T06:04:24.362Z,8.78
2023-11-05T06:07:04.222Z,8.75
2023-11-05T06:09:46.013Z,8.75
2023-11-05T06:12:22.079Z,8.75
2023-11-05T06:15:11.340Z,8.74
2023-11-05T06:17:49.362Z,8.78
2023-11-05T06:20:47.799Z,8.81
2023-11-05T06:23:42.588Z,8.81
2023-11-05T06:26:23.047Z,8.83
2023-11-05T06:29:00.446Z,8.85
2023-11-05T06:31:56.467Z,8.88
2023-11-05T06:42:06.420Z,8.87
2023-11-05T06:44:49.982Z,8.88
2023-11-05T06:47:54.746Z,8.91
2023-11-05T06:50:33.571Z,8.91
2023-11-05T06:53:11.693Z,9.02
2023-11-05T06:56:25.217Z,9.04
2023-11-05T06:59:04.246Z,9.04
2023-11-05T07:02:08.454Z,9.06
2023-11-05T07:04:47.052Z,9.09
2023-11-05T07:07:44.365Z,9.11
2023-11-05T07:10:28.312Z,9.15
2023-11-05T07:13:19.679Z,9.17
2023-11-05T07:16:29.842Z,9.18
2023-11-05T07:19:29.581Z,9.19
2023-11-05T07:22:28.804Z,9.16
2023-11-05T07:25:43.998Z,9.21
2023-11-05T07:31:28.838Z,9.28
2023-11-05T07:36:57.831Z,9.38
2023-11-05T07:42:38.702Z,9.50
2023-11-05T07:45:14.465Z,9.58
2023-11-05T07:48:09.139Z,9.64
2023-11-05T07:51:09.533Z,9.69
2023-11-05T07:53:46.876Z,9.76
2023-11-05T07:56:26.488Z,9.84
2023-11-05T07:59:02.985Z,9.94
2023-11-05T08:01:50.334Z,10.02
2023-11-05T08:04:27.754Z,10.04
2023-11-05T08:07:16.332Z,10.07
2023-11-05T08:10:07.115Z,10.09
2023-11-05T08:12:40.115Z,10.08
2023-11-05T08:15:24.198Z,10.08
2023-11-05T08:18:15.246Z,10.12
2023-11-05T08:21:36.385Z,10.09
2023-11-05T08:24:10.769Z,10.20
2023-11-05T08:27:10.992Z,10.23
2023-11-05T08:29:55.758Z,10.27
2023-11-05T08:32:46.727Z,10.28
2023-11-05T08:35:46.386Z,10.34
2023-11-05T08:38:28.927Z,10.39
2023-11-05T08:41:02.679Z,10.44
2023-11-05T08:43:45.639Z,10.41
2023-11-05T08:46:24.457Z,10.43
2023-11-05T08:49:11.532Z,10.44
2023-11-05T08:51:46.551Z,10.48
2023-11-05T08:54:16.377Z,10.56
2023-11-05T08:56:49.662Z,10.60
2023-11-05T08:59:24.376Z,10.63
2023-11-05T09:02:13.826Z,10.67
2023-11-05T09:04:50.718Z,10.71
2023-11-05T09:07:30.471Z,10.75
2023-11-05T09:10:04.230Z,10.83
2023-11-05T09:12:37.602Z,10.89
2023-11-05T09:15:17.705Z,10.89
2023-11-05T09:18:03.237Z,10.89
2023-11-05T09:20:56.556Z,10.92
2023-11-05T09:23:33.519Z,10.92
2023-11-05T09:26:36.790Z,10.96
2023-11-05T09:29:17.449Z,11.06
2023-11-05T09:31:51.151Z,11.11
2023-11-05T09:34:47.809Z,11.15
2023-11-05T09:37:28.406Z,11.17
2023-11-05T09:40:09.649Z,11.22
2023-11-05T09:43:11.893Z,11.28
2023-11-05T09:46:10.310Z,11.38
2023-11-05T09:48:55.326Z,11.46
2023-11-05T09:51:35.631Z,11.47
2023-11-05T09:54:15.136Z,11.49
2023-11-05T09:56:50.518Z,11.46
2023-11-05T09:59:36.055Z,11.40
2023-11-05T10:02:21.657Z,11.46
2023-11-05T10:05:07.271Z,11.47
2023-11-05T10:08:06.871Z,11.46
2023-11-05T10:11:00.989Z,11.42
2023-11-05T10:13:33.797Z,11.38
2023-11-05T10:16:21.182Z,11.33
2023-11-05T10:19:17.233Z,11.27
2023-11-05T10:22:21.797Z,11.28
2023-11-05T10:24:55.526Z,11.29
2023-11-05T10:27:38.307Z,11.32
2023-11-05T10:30:35.209Z,11.26
2023-11-05T10:33:19.741Z,11.30
2023-11-05T10:36:01.934Z,11.30
2023-11-05T10:38:51.107Z,11.28
2023-11-05T10:41:38.679Z,11.25
2023-11-05T10:44:18.788Z,11.27
2023-11-05T10:47:09.021Z,11.30
2023-11-05T10:50:07.251Z,11.31
2023-11-05T10:53:03.795Z,11.27
2023-11-05T10:56:02.749Z,11.22
2023-11-05T10:59:19.516Z,11.20
2023-11-05T11:05:15.733Z,11.16
2023-11-05T11:07:55.466Z,11.15
2023-11-05T11:11:08.718Z,11.16
2023-11-05T11:14:01.350Z,11.18
2023-11-05T11:17:03.289Z,11.13
2023-11-05T11:19:49.785Z,11.13
2023-11-05T11:22:45.351Z,11.18
2023-11-05T11:25:31.595Z,11.25
2023-11-05T11:28:40.702Z,11.33
2023-11-05T11:31:19.048Z,11.40
2023-11-05T11:34:00.240Z,11.47
2023-11-05T11:36:55.486Z,11.53
2023-11-05T11:39:50.198Z,11.53
2023-11-05T11:42:27.735Z,11.58
2023-11-05T11:45:15.849Z,11.61
2023-11-05T11:48:05.973Z,11.64
2023-11-05T11:51:12.191Z,11.65
2023-11-05T11:54:11.650Z,11.71
2023-11-05T11:57:08.332Z,11.76
2023-11-05T11:59:57.758Z,11.79
2023-11-05T12:03:15.407Z,11.77
2023-11-05T12:05:58.079Z,11.66
2023-11-05T12:08:48.044Z,11.79
2023-11-05T12:11:45.884Z,11.83
2023-11-05T12:14:35.987Z,11.81
2023-11-05T12:17:18.553Z,11.79
2023-11-05T12:20:10.424Z,11.78
2023-11-05T12:23:03.645Z,11.75
2023-11-05T12:25:38.542Z,11.76
2023-11-05T12:28:49.088Z,11.81
2023-11-05T12:31:54.494Z,11.77
2023-11-05T12:34:40.770Z,11.84
2023-11-05T12:37:24.063Z,11.88
2023-11-05T12:40:16.381Z,11.90
2023-11-05T12:43:05.329Z,11.90
2023-11-05T12:45:43.378Z,11.85
2023-11-05T12:48:36.442Z,11.83
2023-11-05T12:51:10.593Z,11.82
2023-11-05T12:53:56.587Z,11.83
2023-11-05T12:56:33.529Z,11.83
2023-11-05T12:59:31.023Z,11.81
2023-11-05T13:02:10.349Z,11.79
2023-11-05T13:05:03.420Z,11.77
2023-11-05T13:07:49.901Z,11.79
2023-11-05T13:10:46.675Z,11.80
2023-11-05T13:13:23.703Z,11.81
2023-11-05T13:16:12.755Z,11.79
2023-11-05T13:19:17.883Z,11.75
2023-11-05T13:22:14.744Z,11.70
2023-11-05T13:24:57.078Z,11.71
2023-11-05T13:27:51.522Z,11.71
2023-11-05T13:30:39.834Z,11.70
2023-11-05T13:33:49.438Z,11.69
2023-11-05T13:39:53.552Z,11.61
2023-11-05T13:42:38.036Z,11.59
2023-11-05T13:45:17.490Z,11.55
2023-11-05T13:51:48.434Z,11.45
2023-11-05T13:55:03.432Z,11.41
2023-11-05T13:58:00.904Z,11.45
2023-11-05T14:01:22.902Z,11.51
2023-11-05T14:04:04.998Z,11.45
2023-11-05T14:07:02.182Z,11.52
2023-11-05T14:10:04.549Z,11.51
2023-11-05T14:12:43.716Z,11.50
2023-11-05T14:15:14.678Z,11.54
2023-11-05T14:17:54.189Z,11.56
2023-11-05T14:20:42.049Z,11.55
2023-11-05T14:23:27.797Z,11.55
2023-11-05T14:26:07.554Z,11.58
2023-11-05T14:28:47.308Z,11.64
2023-11-05T14:31:43.504Z,11.63
2023-11-05T14:34:42.797Z,11.60
2023-11-05T14:37:38.794Z,11.59
2023-11-05T14:40:19.536Z,11.57
2023-11-05T14:43:13.810Z,11.54
2023-11-05T14:46:02.319Z,11.52
2023-11-05T14:48:52.718Z,11.52
2023-11-05T14:51:36.394Z,11.53
2023-11-05T14:54:24.253Z,11.53
2023-11-05T14:57:40.912Z,11.48
2023-11-05T15:00:42.161Z,11.45
2023-11-05T15:04:07.691Z,11.43
2023-11-05T15:07:01.630Z,11.40
2023-11-05T15:10:00.856Z,11.40
2023-11-05T15:13:01.119Z,11.39
2023-11-05T15:15:59.495Z,11.39
2023-11-05T15:19:02.644Z,11.36
2023-11-05T15:22:13.006Z,11.33
2023-11-05T15:25:00.468Z,11.31
2023-11-05T15:28:01.932Z,11.30
2023-11-05T15:31:19.387Z,11.25
2023-11-05T15:34:29.135Z,11.24
2023-11-05T15:37:18.193Z,11.23
2023-11-05T15:40:17.722Z,11.21
2023-11-05T15:43:31.325Z,11.23
2023-11-05T15:46:46.265Z,11.22
2023-11-05T15:49:53.647Z,11.19
2023-11-05T16:00:23.573Z,11.13
2023-11-05T16:03:44.622Z,11.11
2023-11-05T16:06:47.481Z,11.11
2023-11-05T16:09:59.828Z,11.15
2023-11-05T16:13:26.280Z,11.19
2023-11-05T16:16:06.460Z,11.19
2023-11-05T16:18:49.176Z,11.21
2023-11-05T16:21:26.815Z,11.22
2023-11-05T16:23:59.428Z,11.20
2023-11-05T16:26:37.961Z,11.19
2023-11-05T16:29:14.496Z,11.21
2023-11-05T16:31:52.170Z,11.18
2023-11-05T16:35:04.697Z,11.15
2023-11-05T16:37:53.598Z,11.13
2023-11-05T16:40:53.927Z,11.11
2023-11-05T16:47:01.998Z,11.08
2023-11-05T16:49:42.308Z,11.08
2023-11-05T16:52:38.043Z,11.11
2023-11-05T16:55:38.350Z,11.13
2023-11-05T16:58:54.360Z,11.11
2023-11-05T17:02:03.539Z,11.11
2023-11-05T17:04:55.432Z,11.09
2023-11-05T17:07:51.975Z,11.07
2023-11-05T17:10:35.778Z,10.96
2023-11-05T17:13:27.078Z,10.92
2023-11-05T17:16:20.367Z,10.93
2023-11-05T17:19:05.773Z,10.96
2023-11-05T17:21:54.484Z,10.99
2023-11-05T17:24:52.377Z,11.03
2023-11-05T17:27:31.255Z,11.08
2023-11-05T17:31:02.096Z,11.09
2023-11-05T17:33:53.993Z,11.03
2023-11-05T17:36:45.228Z,11.01
2023-11-05T17:39:27.279Z,10.90
2023-11-05T17:42:36.884Z,10.89
2023-11-05T17:45:20.082Z,10.89
2023-11-05T17:48:02.833Z,10.92
2023-11-05T17:50:46.072Z,10.94
2023-11-05T17:53:21.252Z,10.97
2023-11-05T17:56:05.689Z,11.00
2023-11-05T17:58:45.146Z,11.00
2023-11-05T18:01:22.141Z,10.94
2023-11-05T18:04:02.341Z,11.00
2023-11-05T18:06:40.657Z,11.01
2023-11-05T18:09:19.861Z,11.03
2023-11-05T18:11:56.853Z,11.06
2023-11-05T18:14:48.504Z,11.08
2023-11-05T18:17:37.185Z,11.09
2023-11-05T18:20:13.532Z,11.13
2023-11-05T18:22:53.460Z,11.18
2023-11-05T18:25:41.925Z,11.23
2023-11-05T18:28:33.004Z,11.28
2023-11-05T18:31:28.075Z,11.30
2023-11-05T18:34:39.473Z,11.31
2023-11-05T18:37:43.197Z,11.30
2023-11-05T18:41:24.945Z,11.30
2023-11-05T18:44:25.020Z,11.28
2023-11-05T18:47:47.297Z,11.32
2023-11-05T18:51:16.323Z,11.35
2023-11-05T18:54:39.557Z,11.33
2023-11-05T18:57:39.569Z,11.39
2023-11-05T19:00:44.624Z,11.40
2023-11-05T19:04:05.359Z,11.40
2023-11-05T19:14:37.255Z,11.40
2023-11-05T19:18:26.186Z,11.48
2023-11-05T19:20:57.293Z,11.41
2023-11-05T19:24:13.154Z,11.43
2023-11-05T19:27:38.919Z,11.44
2023-11-05T19:31:07.861Z,11.39
2023-11-05T19:34:32.467Z,11.37
2023-11-05T19:37:51.306Z,11.37
2023-11-05T19:44:34.470Z,11.37
2023-11-05T19:51:46.614Z,11.34
2023-11-05T19:54:47.173Z,11.30
2023-11-05T19:58:04.238Z,11.28
2023-11-05T20:01:09.974Z,11.28
2023-11-05T20:04:14.171Z,11.27
2023-11-05T20:07:04.447Z,11.25
2023-11-05T20:09:56.780Z,11.24
2023-11-05T20:13:06.420Z,11.22
2023-11-05T20:16:11.686Z,11.19
2023-11-05T20:19:29.219Z,11.19
2023-11-05T20:23:00.382Z,11.16
2023-11-05T20:26:52.655Z,11.11
2023-11-05T20:30:49.879Z,11.07
2023-11-05T20:34:48.961Z,11.06
2023-11-05T20:37:41.598Z,11.07
2023-11-05T20:40:22.022Z,11.11
2023-11-05T20:43:05.688Z,11.13
2023-11-05T20:45:46.936Z,11.11
2023-11-05T20:52:11.540Z,11.11
2023-11-05T20:55:07.355Z,11.12
2023-11-05T20:58:17.868Z,11.15
2023-11-05T21:01:16.051Z,11.15
2023-11-05T21:04:25.125Z,11.14
2023-11-05T21:07:20.993Z,11.16
2023-11-05T21:10:23.843Z,11.15
2023-11-05T21:13:10.025Z,11.15
2023-11-05T21:16:30.735Z,11.13
2023-11-05T21:19:47.119Z,11.16
2023-11-05T21:22:38.562Z,11.17
2023-11-05T21:25:29.938Z,11.17
2023-11-05T21:28:24.217Z,11.17
2023-11-05T21:39:43.558Z,11.07
2023-11-05T21:42:59.885Z,11.11
2023-11-05T21:46:17.583Z,11.06
2023-11-05T21:49:18.709Z,11.14
2023-11-05T21:52:57.301Z,11.16
2023-11-05T21:56:29.426Z,11.17
2023-11-05T21:59:20.294Z,11.17
2023-11-05T22:02:25.894Z,11.22
2023-11-05T22:05:38.752Z,11.22
2023-11-05T22:09:07.859Z,11.29
2023-11-05T22:12:09.738Z,11.35
2023-11-05T22:15:43.284Z,11.39
2023-11-05T22:18:42.818Z,11.42
2023-11-05T22:21:38.469Z,11.46
2023-11-05T22:24:25.454Z,11.51
2023-11-05T22:27:22.993Z,11.45
2023-11-05T22:30:01.168Z,11.46
2023-11-05T22:35:54.092Z,11.47
2023-11-05T22:38:35.081Z,11.46
2023-11-05T22:41:12.834Z,11.51
2023-11-05T22:44:19.410Z,11.52
2023-11-05T22:47:41.557Z,11.50
2023-11-05T22:50:25.316Z,11.46
2023-11-05T22:53:35.481Z,11.40
2023-11-05T22:56:21.152Z,11.38
2023-11-05T22:59:30.537Z,11.37
2023-11-05T23:02:18.206Z,11.39
2023-11-05T23:05:22.306Z,11.42
2023-11-05T23:08:26.604Z,11.43
2023-11-05T23:11:20.709Z,11.43
2023-11-05T23:14:06.241Z,11.45
2023-11-05T23:17:01.988Z,11.47
2023-11-05T23:19:53.003Z,11.47
2023-11-05T23:22:45.835Z,11.45
2023-11-05T23:26:04.348Z,11.44
2023-11-05T23:32:48.734Z,11.40
2023-11-05T23:35:37.810Z,11.43
2023-11-05T23:38:29.053Z,11.42
2023-11-05T23:41:43.191Z,11.42
2023-11-05T23:44:22.959Z,11.41
2023-11-05T23:47:15.446Z,11.40
2023-11-05T23:50:11.674Z,11.42
2023-11-05T23:52:51.784Z,11.44
2023-11-05T23:55:51.310Z,11.46
2023-11-05T23:58:29.226Z,11.48
